Time;durP1;ratioP1;P1;durP2;ratioP2;P2;SDS_P1;SDS_P2;PMS_P1;PMS_P2;Temp;Humidity;BMP_temperature;BMP_pressure;BME280_temperature;BME280_humidity;BME280_pressure;Samples;Min_cycle;Max_cycle;Signal;HPM_P1;HPM_P2
2022/11/10 00:02:22;;;;;;;70.67;37.10;;;;;;;4.62;100.00;100856.41;1696498;84;21070;-67
2022/11/10 00:05:10;;;;;;;81.17;38.98;;;;;;;4.59;100.00;100860.33;1696506;84;21096;-66
2022/11/10 00:07:56;;;;;;;69.72;35.83;;;;;;;4.59;100.00;100857.28;1711711;83;21037;-67
2022/11/10 00:10:56;;;;;;;69.65;36.45;;;;;;;4.57;100.00;100855.55;1725846;83;21041;-67
2022/11/10 00:17:03;;;;;;;71.65;33.80;;;;;;;4.56;100.00;100853.83;1725766;83;21035;-67
2022/11/10 00:19:48;;;;;;;71.47;36.23;;;;;;;4.50;100.00;100856.42;1725816;83;21058;-67
2022/11/10 00:22:34;;;;;;;84.60;38.70;;;;;;;4.61;100.00;100853.38;1725626;83;21049;-68
2022/11/10 00:25:19;;;;;;;77.47;40.23;;;;;;;4.68;100.00;100856.41;1726635;82;21134;-68
2022/11/10 00:28:04;;;;;;;73.52;36.28;;;;;;;4.67;100.00;100845.55;1715893;83;21156;-65
2022/11/10 00:30:49;;;;;;;72.00;36.60;;;;;;;4.68;100.00;100848.58;1715900;83;21082;-69
2022/11/10 00:33:38;;;;;;;77.20;38.38;;;;;;;4.73;100.00;100849.44;1715904;83;21090;-67
2022/11/10 00:36:23;;;;;;;68.72;35.48;;;;;;;4.80;100.00;100842.02;1715740;83;21110;-67
2022/11/10 00:39:09;;;;;;;62.45;32.95;;;;;;;4.81;100.00;100846.39;1715638;83;21062;-67
2022/11/10 00:41:56;;;;;;;71.33;37.28;;;;;;;4.79;100.00;100841.61;1715665;83;22228;-67
2022/11/10 00:44:41;;;;;;;63.78;34.20;;;;;;;4.70;100.00;100841.63;1716156;83;21053;-66
2022/11/10 00:47:27;;;;;;;67.10;36.38;;;;;;;4.75;100.00;100836.39;1717290;82;21054;-65
2022/11/10 00:50:12;;;;;;;70.67;37.70;;;;;;;4.70;100.00;100836.41;1717237;83;21050;-66
2022/11/10 00:52:56;;;;;;;69.30;35.15;;;;;;;4.70;100.00;100829.87;1717403;83;21565;-67
2022/11/10 00:55:41;;;;;;;74.62;36.85;;;;;;;4.70;100.00;100831.19;1717480;83;21121;-67
2022/11/10 00:58:26;;;;;;;71.47;36.60;;;;;;;4.74;100.00;100826.81;1717424;83;21094;-68
2022/11/10 01:01:12;;;;;;;76.30;38.08;;;;;;;4.81;100.00;100823.34;1717639;83;21105;-68
2022/11/10 01:03:57;;;;;;;65.17;34.25;;;;;;;4.83;100.00;100825.48;1717406;83;21589;-67
2022/11/10 01:06:42;;;;;;;64.80;31.42;;;;;;;4.80;100.00;100819.84;1717476;83;21050;-68
2022/11/10 01:09:28;;;;;;;76.25;37.53;;;;;;;4.78;100.00;100826.80;1717424;83;21683;-67
2022/11/10 01:12:13;;;;;;;66.65;34.90;;;;;;;4.80;100.00;100818.53;1717307;83;21658;-67
2022/11/10 01:14:59;;;;;;;73.02;35.75;;;;;;;4.69;100.00;100822.91;1717377;83;21104;-66
2022/11/10 01:17:46;;;;;;;74.62;37.58;;;;;;;4.72;100.00;100821.62;1717508;83;21051;-66
2022/11/10 01:20:34;;;;;;;66.40;33.65;;;;;;;4.71;100.00;100815.09;1717636;83;21529;-65
2022/11/10 01:23:20;;;;;;;69.27;37.98;;;;;;;4.63;100.00;100813.80;1717358;83;21131;-67
2022/11/10 01:26:06;;;;;;;77.20;35.95;;;;;;;4.70;100.00;100812.92;1719077;81;21553;-67
2022/11/10 01:28:51;;;;;;;74.90;37.13;;;;;;;4.70;100.00;100815.53;1751524;81;21005;-67
2022/11/10 01:31:36;;;;;;;65.52;34.30;;;;;;;4.60;100.00;100812.08;1751726;81;21094;-67
2022/11/10 01:34:22;;;;;;;71.62;34.98;;;;;;;4.67;100.00;100806.83;1751477;81;21045;-66
2022/11/10 01:37:08;;;;;;;72.12;37.03;;;;;;;4.60;100.00;100808.58;1751471;81;21537;-67
2022/11/10 01:39:53;;;;;;;71.10;37.45;;;;;;;4.52;100.00;100809.04;1751435;81;21010;-66
2022/11/10 01:42:55;;;;;;;65.28;34.90;;;;;;;4.48;100.00;100803.38;1751800;81;21030;-67
2022/11/10 01:46:07;;;;;;;72.80;37.42;;;;;;;4.48;100.00;100819.90;1750466;81;21552;-68
2022/11/10 01:48:59;;;;;;;66.90;34.25;;;;;;;4.55;100.00;100812.94;1749791;81;21054;-67
2022/11/10 01:51:49;;;;;;;76.07;36.85;;;;;;;4.47;100.00;100814.70;1728176;82;21332;-67
2022/11/10 01:54:41;;;;;;;64.97;33.50;;;;;;;4.47;100.00;100816.01;1749979;82;21086;-65
2022/11/10 01:57:27;;;;;;;74.67;38.02;;;;;;;4.56;100.00;100819.91;1750009;82;21097;-67
2022/11/10 02:00:12;;;;;;;67.10;34.63;;;;;;;4.54;100.00;100816.43;1750208;81;21509;-66
2022/11/10 02:03:02;;;;;;;54.80;30.25;;;;;;;4.51;100.00;100819.02;1751686;81;21099;-67
2022/11/10 02:05:47;;;;;;;65.87;34.63;;;;;;;4.49;100.00;100821.66;1751582;81;21249;-67
2022/11/10 02:08:32;;;;;;;65.47;32.98;;;;;;;4.58;100.00;100826.00;1751604;81;21054;-67
2022/11/10 02:11:17;;;;;;;58.92;32.17;;;;;;;4.60;100.00;100819.01;1751471;81;21049;-67
2022/11/10 02:14:02;;;;;;;66.57;35.78;;;;;;;4.61;100.00;100821.62;1751529;81;21078;-69
2022/11/10 02:16:47;;;;;;;68.72;34.55;;;;;;;4.66;100.00;100817.70;1751468;81;21045;-68
2022/11/10 02:19:40;;;;;;;56.40;30.77;;;;;;;4.59;100.00;100817.28;1751582;81;21171;-66
2022/11/10 02:22:25;;;;;;;58.70;30.82;;;;;;;4.62;100.00;100819.87;1751526;81;21013;-66
2022/11/10 02:25:11;;;;;;;65.35;34.58;;;;;;;4.60;100.00;100819.01;1751431;81;21101;-68
2022/11/10 02:27:58;;;;;;;72.12;35.98;;;;;;;4.52;100.00;100820.33;1728672;81;21042;-67
2022/11/10 02:30:43;;;;;;;62.33;31.70;;;;;;;4.48;100.00;100813.81;1717458;83;21101;-66
2022/11/10 02:33:29;;;;;;;58.92;31.10;;;;;;;4.51;100.00;100819.02;1717355;83;21050;-66
2022/11/10 02:36:14;;;;;;;71.77;35.48;;;;;;;4.55;100.00;100812.49;1717429;83;21002;-66
2022/11/10 02:38:59;;;;;;;60.75;31.52;;;;;;;4.52;100.00;100822.08;1717450;83;21049;-67
2022/11/10 02:41:44;;;;;;;63.23;33.13;;;;;;;4.51;100.00;100824.23;1717598;83;20999;-65
2022/11/10 02:44:30;;;;;;;70.95;36.65;;;;;;;4.44;100.00;100823.41;1717212;83;21581;-66
2022/11/10 02:47:14;;;;;;;66.85;34.53;;;;;;;4.51;100.00;100829.45;1715894;83;21178;-68
2022/11/10 02:49:59;;;;;;;68.12;34.40;;;;;;;4.48;100.00;100834.24;1717404;83;21080;-68
2022/11/10 02:52:44;;;;;;;66.00;32.98;;;;;;;4.43;100.00;100831.22;1717635;83;21081;-66
2022/11/10 02:55:29;;;;;;;62.70;29.95;;;;;;;4.41;100.00;100833.37;1717555;83;21118;-67
2022/11/10 02:58:14;;;;;;;67.65;34.53;;;;;;;4.41;100.00;100829.46;1717432;83;21039;-66
2022/11/10 03:01:01;;;;;;;74.90;33.90;;;;;;;4.46;100.00;100819.47;1717105;83;21245;-69
2022/11/10 03:03:46;;;;;;;66.47;33.35;;;;;;;4.50;100.00;100827.29;1706640;83;21042;-67
2022/11/10 03:06:32;;;;;;;67.87;33.53;;;;;;;4.59;100.00;100825.11;1717303;83;21033;-67
2022/11/10 03:09:17;;;;;;;66.62;35.25;;;;;;;4.55;100.00;100819.02;1717275;83;21063;-67
2022/11/10 03:12:02;;;;;;;58.20;31.15;;;;;;;4.61;100.00;100811.63;1717131;83;21073;-68
2022/11/10 03:14:47;;;;;;;64.20;31.70;;;;;;;4.72;100.00;100809.02;1717088;83;21158;-68
2022/11/10 03:17:34;;;;;;;69.95;33.80;;;;;;;4.60;100.00;100808.58;1717094;83;21045;-67
2022/11/10 03:20:19;;;;;;;62.80;33.25;;;;;;;4.55;100.00;100810.33;1717345;83;21038;-67
2022/11/10 03:24:43;;;;;;;69.33;35.27;;;;;;;4.03;100.00;100810.37;1794620;78;25553;-91
2022/11/10 03:27:28;;;;;;;69.15;33.80;;;;;;;4.36;100.00;100815.56;1789688;80;21052;-91
2022/11/10 03:30:13;;;;;;;69.45;32.55;;;;;;;4.50;100.00;100806.86;1748145;79;22513;-91
2022/11/10 03:32:58;;;;;;;69.80;35.10;;;;;;;4.54;100.00;100803.39;1750175;80;21040;-91
2022/11/10 03:35:45;;;;;;;69.32;34.35;;;;;;;4.56;100.00;100801.66;1750391;81;21123;-90
2022/11/10 03:38:30;;;;;;;69.80;34.38;;;;;;;4.54;100.00;100804.69;1744922;81;21048;-90
2022/11/10 03:41:16;;;;;;;70.87;32.63;;;;;;;4.54;100.00;100796.87;1748145;81;21039;-92
2022/11/10 03:44:02;;;;;;;55.65;28.25;;;;;;;4.52;100.00;100801.22;1760611;81;20953;-91
2022/11/10 03:46:47;;;;;;;68.40;34.85;;;;;;;4.59;100.00;100794.67;1760776;80;21060;-91
2022/11/10 03:49:36;;;;;;;68.83;33.10;;;;;;;4.62;100.00;100792.48;1761956;78;20967;-91
2022/11/10 03:52:21;;;;;;;70.55;34.08;;;;;;;4.72;100.00;100795.52;1758298;80;20984;-91
2022/11/10 03:55:07;;;;;;;62.88;30.90;;;;;;;4.80;100.00;100784.61;1750870;79;21534;-92
2022/11/10 03:57:51;;;;;;;70.20;33.73;;;;;;;4.79;100.00;100790.72;1756792;78;21496;-90
2022/11/10 04:00:39;;;;;;;71.47;35.65;;;;;;;4.83;100.00;100791.15;1764574;80;21009;-92
2022/11/10 04:03:24;;;;;;;70.87;34.60;;;;;;;4.82;100.00;100798.53;1762261;80;21044;-92
2022/11/10 04:09:16;;;;;;;73.02;35.23;;;;;;;4.95;100.00;100791.98;1764711;80;21002;-88
2022/11/10 04:18:24;;;;;;;63.80;31.12;;;;;;;4.89;100.00;100792.00;1760342;80;21616;-91
2022/11/10 04:21:13;;;;;;;67.80;31.35;;;;;;;4.98;100.00;100788.91;1751221;80;21023;-92
2022/11/10 04:24:00;;;;;;;67.05;30.08;;;;;;;5.01;100.00;100791.94;1757935;80;21073;-90
2022/11/10 04:26:46;;;;;;;61.48;30.27;;;;;;;5.05;100.00;100794.53;1766581;78;21206;-90
2022/11/10 04:29:31;;;;;;;64.92;32.63;;;;;;;5.08;100.00;100797.57;1763368;80;21013;-91
2022/11/10 04:32:16;;;;;;;66.65;32.83;;;;;;;5.04;100.00;100798.03;1755233;80;21114;-92
2022/11/10 04:35:02;;;;;;;63.63;31.45;;;;;;;5.15;100.00;100790.14;1759535;80;20999;-92
2022/11/10 04:37:47;;;;;;;66.40;32.48;;;;;;;5.18;100.00;100792.76;1759858;80;21143;-91
2022/11/10 04:40:34;;;;;;;63.65;32.70;;;;;;;5.23;100.00;100800.13;1760397;80;21582;-91
2022/11/10 04:43:20;;;;;;;62.13;30.40;;;;;;;5.25;100.00;100788.38;1760308;80;21077;-91
2022/11/10 04:46:06;;;;;;;64.00;31.23;;;;;;;5.41;100.00;100785.26;1782964;80;20994;-90
2022/11/10 04:48:54;;;;;;;63.42;30.48;;;;;;;5.42;100.00;100792.20;1774992;80;21373;-92
2022/11/10 04:51:42;;;;;;;60.65;31.37;;;;;;;5.49;100.00;100792.59;1779672;76;21021;-92
2022/11/10 04:54:28;;;;;;;67.32;34.67;;;;;;;5.58;100.00;100790.38;1770927;80;21359;-90
2022/11/10 04:57:13;;;;;;;58.78;29.80;;;;;;;5.47;100.00;100794.34;1780843;80;21010;-93
2022/11/10 04:59:58;;;;;;;59.93;32.35;;;;;;;5.59;100.00;100794.30;1787380;80;21099;-93
2022/11/10 05:02:43;;;;;;;67.10;33.30;;;;;;;5.60;100.00;100793.85;1786856;80;21133;-91
2022/11/10 05:05:30;;;;;;;54.70;28.77;;;;;;;5.57;100.00;100793.44;1781349;80;21057;-91
2022/11/10 05:08:14;;;;;;;62.08;31.23;;;;;;;5.63;100.00;100794.68;1776436;80;21117;-92
2022/11/10 05:11:01;;;;;;;63.25;31.35;;;;;;;5.70;100.00;100802.49;1742808;81;20962;-89
2022/11/10 05:13:49;;;;;;;60.43;30.77;;;;;;;5.67;100.00;100797.71;1693444;82;21079;-89
2022/11/10 05:16:36;;;;;;;53.17;28.10;;;;;;;5.80;100.00;100802.87;1719700;82;21018;-90
2022/11/10 05:19:23;;;;;;;66.62;31.80;;;;;;;5.76;100.00;100803.33;1701691;82;21124;-92
2022/11/10 05:22:09;;;;;;;57.38;29.48;;;;;;;5.80;100.00;100813.34;1713663;82;21227;-91
2022/11/10 05:24:54;;;;;;;61.00;30.60;;;;;;;5.75;100.00;100808.55;1715816;81;21628;-91
2022/11/10 05:27:42;;;;;;;60.70;29.90;;;;;;;5.83;100.00;100807.63;1707562;83;21530;-90
2022/11/10 05:30:28;;;;;;;57.30;28.95;;;;;;;5.84;100.00;100812.00;1710460;82;21057;-90
2022/11/10 05:33:24;;;;;;;60.35;29.35;;;;;;;5.85;100.00;100816.78;1712178;82;21119;-91
2022/11/10 05:36:10;;;;;;;58.65;27.77;;;;;;;5.93;100.00;100812.35;1703843;79;21128;-90
2022/11/10 05:38:56;;;;;;;63.02;30.17;;;;;;;6.00;100.00;100814.07;1701823;83;21117;-91
2022/11/10 05:41:43;;;;;;;54.27;29.30;;;;;;;5.96;100.00;100812.38;1773645;80;21096;-92
2022/11/10 05:44:28;;;;;;;58.17;28.65;;;;;;;6.05;100.00;100811.42;1764853;80;21185;-90
2022/11/10 05:47:13;;;;;;;59.23;29.27;;;;;;;6.02;100.00;100822.78;1732912;81;21540;-91
2022/11/10 05:49:58;;;;;;;61.37;30.20;;;;;;;6.13;100.00;100828.38;1742184;81;21217;-90
2022/11/10 05:52:48;;;;;;;50.90;27.22;;;;;;;6.17;100.00;100831.41;1699352;81;21088;-90
2022/11/10 05:55:34;;;;;;;58.98;30.00;;;;;;;6.21;100.00;100830.48;1710316;81;21066;-92
2022/11/10 05:58:20;;;;;;;59.35;29.15;;;;;;;6.22;100.00;100834.85;1737998;81;21619;-91
2022/11/10 06:01:05;;;;;;;58.08;28.57;;;;;;;6.19;100.00;100840.98;1734925;82;20991;-91
2022/11/10 06:03:50;;;;;;;56.88;28.60;;;;;;;6.24;100.00;100843.55;1721825;82;21055;-91
2022/11/10 06:06:35;;;;;;;55.90;29.70;;;;;;;6.29;100.00;100839.15;1741972;82;21667;-91
2022/11/10 06:09:20;;;;;;;59.00;30.05;;;;;;;6.37;100.00;100851.70;1736569;82;21085;-92
2022/11/10 06:12:08;;;;;;;54.25;28.07;;;;;;;6.46;100.00;100849.02;1719235;81;21047;-91
2022/11/10 06:14:59;;;;;;;55.73;29.05;;;;;;;6.57;100.00;100853.30;1721295;81;21070;-92
2022/11/10 06:17:44;;;;;;;53.08;26.70;;;;;;;6.63;100.00;100863.73;1744920;81;21927;-91
2022/11/10 06:20:31;;;;;;;50.58;25.50;;;;;;;6.67;100.00;100853.63;1725788;80;21085;-91
2022/11/10 08:49:22;;;;;;;43.55;23.45;;;;;;;7.41;100.00;100881.66;1824673;75;28055;-89
2022/11/10 08:52:09;;;;;;;40.52;21.30;;;;;;;7.41;100.00;100887.78;1770553;78;21060;-88
2022/11/10 08:54:54;;;;;;;42.78;21.52;;;;;;;7.53;100.00;100886.77;1781201;80;21098;-87
2022/11/10 08:57:38;;;;;;;37.83;19.95;;;;;;;7.73;100.00;100887.38;1780285;78;20929;-88
2022/11/10 09:00:23;;;;;;;37.17;20.77;;;;;;;7.91;100.00;100887.58;1761480;78;21044;-91
2022/11/10 09:03:23;;;;;;;38.42;22.13;;;;;;;8.01;100.00;100896.63;1765819;78;20976;-91
2022/11/10 09:06:09;;;;;;;40.15;20.88;;;;;;;8.12;100.00;100892.96;1771794;78;21561;-89
2022/11/10 09:08:55;;;;;;;31.15;18.35;;;;;;;8.18;100.00;100888.05;1777503;80;21024;-90
2022/11/10 09:11:40;;;;;;;37.95;20.20;;;;;;;8.24;100.00;100896.30;1777738;80;21043;-89
2022/11/10 09:14:27;;;;;;;37.23;20.35;;;;;;;8.26;100.00;100887.92;1769418;78;21076;-89
2022/11/10 09:17:13;;;;;;;34.20;18.57;;;;;;;8.34;100.00;100883.44;1778099;80;20990;-92
2022/11/10 09:20:02;;;;;;;31.77;18.70;;;;;;;8.29;100.00;100876.09;1764037;78;21511;-91
2022/11/10 09:22:47;;;;;;;34.53;19.52;;;;;;;8.28;100.00;100873.03;1757300;78;21122;-89
2022/11/10 09:25:33;;;;;;;34.13;19.40;;;;;;;8.33;100.00;100868.15;1766181;80;21020;-90
2022/11/10 09:28:19;;;;;;;35.40;18.92;;;;;;;8.43;100.00;100875.45;1772442;78;21549;-91
2022/11/10 09:31:05;;;;;;;34.27;18.60;;;;;;;8.41;100.00;100871.98;1777664;78;20990;-89
2022/11/10 09:33:50;;;;;;;35.40;18.50;;;;;;;8.42;100.00;100865.86;1774807;78;21071;-89
2022/11/10 09:36:39;;;;;;;29.90;18.15;;;;;;;8.39;100.00;100868.48;1779408;78;21276;-90
2022/11/10 09:39:23;;;;;;;30.50;18.87;;;;;;;8.42;100.00;100868.48;1778115;78;20985;-90
2022/11/10 09:42:31;;;;;;;34.40;16.30;;;;;;;8.49;100.00;100872.73;1771834;78;21033;-90
2022/11/10 09:45:28;;;;;;;32.90;17.80;;;;;;;8.46;100.00;100871.45;1758533;78;21072;-89
2022/11/10 09:48:31;;;;;;;34.67;19.23;;;;;;;8.47;100.00;100869.27;1763177;78;21119;-91
2022/11/10 09:51:24;;;;;;;36.03;18.10;;;;;;;8.45;100.00;100872.81;1774868;78;21077;-88
2022/11/10 09:54:44;;;;;;;32.53;18.90;;;;;;;8.50;100.00;100874.91;1763613;78;21012;-88
2022/11/10 09:57:30;;;;;;;34.65;20.23;;;;;;;8.52;100.00;100877.92;1781393;78;21064;-91
2022/11/10 10:00:16;;;;;;;32.00;18.30;;;;;;;8.47;100.00;100875.83;1763060;78;21012;-88
2022/11/10 10:03:03;;;;;;;33.10;19.48;;;;;;;8.48;100.00;100869.67;1766244;79;21361;-92
2022/11/10 10:06:09;;;;;;;33.63;17.73;;;;;;;8.53;100.00;100869.14;1769488;79;21071;-90
2022/11/10 10:09:23;;;;;;;33.58;17.42;;;;;;;8.53;100.00;100876.16;1767649;78;21095;-90
2022/11/10 10:12:51;;;;;;;31.52;19.15;;;;;;;8.48;100.00;100853.92;1763296;78;21146;-90
2022/11/10 10:15:58;;;;;;;36.88;18.98;;;;;;;8.58;100.00;100876.52;1768577;78;20943;-92
2022/11/10 10:19:16;;;;;;;33.78;19.20;;;;;;;8.56;100.00;100870.42;1766551;78;21044;-90
2022/11/10 10:22:22;;;;;;;40.03;19.65;;;;;;;8.67;100.00;100871.53;1763669;78;21130;-91
2022/11/10 10:25:15;;;;;;;38.20;19.00;;;;;;;8.71;100.00;100865.80;1780310;80;20974;-90
2022/11/10 10:28:29;;;;;;;33.92;18.15;;;;;;;8.74;100.00;100868.36;1747678;80;21004;-93
2022/11/10 10:31:28;;;;;;;36.17;18.77;;;;;;;8.71;100.00;100864.48;1762709;78;20967;-91
2022/11/10 10:34:17;;;;;;;32.75;17.62;;;;;;;8.70;100.00;100868.88;1764507;78;21036;-91
2022/11/10 10:37:02;;;;;;;32.30;16.93;;;;;;;8.75;100.00;100863.55;1758378;78;21243;-91
2022/11/10 10:39:49;;;;;;;37.25;18.80;;;;;;;8.75;100.00;100864.85;1764243;78;21025;-92
2022/11/10 10:42:36;;;;;;;35.55;18.07;;;;;;;8.77;100.00;100869.19;1778016;78;20997;-92
2022/11/10 10:45:25;;;;;;;37.80;19.07;;;;;;;8.70;100.00;100864.08;1759160;78;21625;-92
2022/11/10 10:48:27;;;;;;;35.17;19.52;;;;;;;8.76;100.00;100873.14;1775000;78;21502;-91
2022/11/10 10:51:18;;;;;;;;;;;;;;;8.74;100.00;100876.23;1759651;78;21135;-91
2022/11/10 10:54:03;;;;;;;34.18;18.82;;;;;;;8.72;100.00;100871.45;1743990;82;20170;-91
2022/11/10 10:56:49;;;;;;;39.65;21.70;;;;;;;8.66;100.00;100878.14;1726533;83;21001;-90
2022/11/10 10:59:35;;;;;;;40.52;19.17;;;;;;;8.66;100.00;100875.52;1774828;78;21416;-91
2022/11/10 11:02:28;;;;;;;38.95;19.30;;;;;;;8.58;100.00;100880.45;1771417;78;21037;-91
2022/11/10 11:05:17;;;;;;;35.25;19.80;;;;;;;8.49;100.00;100876.67;1771244;78;21137;-92
2022/11/10 11:08:03;;;;;;;41.13;20.80;;;;;;;8.46;100.00;100878.02;1767579;78;20962;-91
2022/11/10 11:10:48;;;;;;;44.55;20.95;;;;;;;8.44;100.00;100878.48;1770414;78;21043;-92
2022/11/10 11:13:33;;;;;;;34.90;19.23;;;;;;;8.39;100.00;100872.41;1777147;78;21057;-92
2022/11/10 11:16:18;;;;;;;44.60;21.42;;;;;;;8.43;100.00;100875.45;1779598;80;21009;-91
2022/11/10 11:19:03;;;;;;;42.98;20.43;;;;;;;8.34;100.00;100867.23;1750938;78;21179;-92
2022/11/10 11:22:36;;;;;;;36.10;19.48;;;;;;;8.30;100.00;100872.56;1777848;79;21649;-90
2022/11/10 11:25:34;;;;;;;52.20;23.32;;;;;;;8.22;100.00;100871.83;1780211;80;20887;-88
2022/11/10 11:28:27;;;;;;;42.65;21.68;;;;;;;8.27;100.00;100876.55;1771519;78;21072;-91
2022/11/10 11:31:41;;;;;;;46.77;22.75;;;;;;;8.23;100.00;100880.11;1772639;79;20973;-92
2022/11/10 11:34:53;;;;;;;45.28;23.02;;;;;;;8.20;100.00;100875.33;1758932;78;21254;-92
2022/11/10 11:37:50;;;;;;;48.15;22.32;;;;;;;8.24;100.00;100872.68;1763069;80;21068;-91
2022/11/10 11:41:05;;;;;;;42.75;22.30;;;;;;;8.33;100.00;100883.03;1765933;78;21059;-92
2022/11/10 11:44:11;;;;;;;48.52;24.15;;;;;;;8.22;100.00;100874.45;1717399;80;21013;-91
2022/11/10 11:47:22;;;;;;;51.02;23.95;;;;;;;8.16;100.00;100873.63;1741848;80;21106;-91
2022/11/10 11:50:28;;;;;;;43.50;22.87;;;;;;;8.30;100.00;100877.81;1733361;80;21267;-89
2022/11/10 11:53:46;;;;;;;52.55;24.50;;;;;;;8.25;100.00;100880.95;1743343;80;21011;-92
2022/11/10 11:56:44;;;;;;;48.73;25.27;;;;;;;8.36;100.00;100893.47;1738665;80;21663;-90
2022/11/10 11:59:56;;;;;;;50.83;27.13;;;;;;;8.44;100.00;100885.50;1746549;82;21005;-91
2022/11/10 12:03:05;;;;;;;56.15;27.07;;;;;;;8.42;100.00;100892.11;1737306;80;21087;-92
2022/11/10 12:06:27;;;;;;;53.75;26.85;;;;;;;8.43;100.00;100887.27;1743406;82;22041;-92
2022/11/10 12:09:34;;;;;;;48.30;23.55;;;;;;;8.43;100.00;100886.41;1741017;80;21084;-92
2022/11/10 12:12:35;;;;;;;49.70;25.72;;;;;;;8.38;100.00;100887.76;1755484;81;21054;-93
2022/11/10 12:15:33;;;;;;;;;;;;;;;8.35;100.00;100879.91;1740303;80;21782;-91
2022/11/10 12:18:36;;;;;;;49.18;24.57;;;;;;;8.28;100.00;100873.03;1739604;80;20235;-92
2022/11/10 12:21:30;;;;;;;51.25;26.75;;;;;;;8.25;100.00;100877.88;1731452;82;21135;-91
2022/11/10 12:24:32;;;;;;;51.83;26.65;;;;;;;8.29;100.00;100873.02;1735831;82;21016;-93
2022/11/10 12:27:32;;;;;;;48.98;25.97;;;;;;;8.32;100.00;100878.20;1733875;80;21115;-91
2022/11/10 12:30:17;;;;;;;50.63;26.55;;;;;;;8.26;100.00;100874.80;1737851;80;21011;-91
2022/11/10 12:33:19;;;;;;;55.23;27.17;;;;;;;8.29;100.00;100874.78;1738844;80;21056;-92
2022/11/10 12:36:07;;;;;;;55.20;26.17;;;;;;;8.37;100.00;100881.65;1743911;80;21465;-92
2022/11/10 12:39:04;;;;;;;52.80;26.62;;;;;;;8.37;100.00;100891.25;1740637;80;20977;-91
2022/11/10 12:41:55;;;;;;;46.85;25.95;;;;;;;8.27;100.00;100890.98;1730259;80;21682;-92
2022/11/10 12:45:07;;;;;;;44.95;26.40;;;;;;;8.27;100.00;100890.54;1746738;80;21076;-93
2022/11/10 12:47:52;;;;;;;56.20;28.52;;;;;;;8.16;100.00;100889.83;1763724;79;21093;-91
2022/11/10 12:51:03;;;;;;;48.13;25.55;;;;;;;8.19;100.00;100888.05;1762265;80;20944;-90
2022/11/10 12:53:47;;;;;;;37.75;21.35;;;;;;;8.17;100.00;100879.77;1779438;80;21581;-91
2022/11/10 12:57:03;;;;;;;47.05;25.02;;;;;;;8.10;100.00;100882.93;1768909;80;21091;-92
2022/11/10 12:59:57;;;;;;;57.08;25.10;;;;;;;8.06;100.00;100894.35;1767696;80;21006;-90
2022/11/10 13:02:44;;;;;;;42.05;21.20;;;;;;;8.07;100.00;100896.07;1762961;80;21222;-92
2022/11/10 13:05:44;;;;;;;41.75;22.75;;;;;;;8.09;100.00;100898.23;1768459;80;21530;-90
2022/11/10 13:08:43;;;;;;;40.43;22.87;;;;;;;8.08;100.00;100886.02;1760585;80;21564;-90
2022/11/10 13:11:36;;;;;;;46.88;22.30;;;;;;;8.02;100.00;100896.59;1761736;80;21050;-91
2022/11/10 13:14:27;;;;;;;36.13;17.50;;;;;;;7.94;100.00;100881.42;1763413;80;21109;-92
2022/11/10 13:17:32;;;;;;;40.20;18.77;;;;;;;7.97;100.00;100878.30;1774913;80;21541;-89
2022/11/10 13:20:42;;;;;;;41.50;19.27;;;;;;;8.01;100.00;100881.75;1760414;80;21136;-92
2022/11/10 13:23:32;;;;;;;39.48;19.95;;;;;;;7.96;100.00;100886.20;1768893;79;21184;-91
2022/11/10 13:26:45;;;;;;;33.70;15.93;;;;;;;8.01;100.00;100884.37;1763450;80;20995;-91
2022/11/10 13:29:48;;;;;;;36.17;18.73;;;;;;;7.90;100.00;100884.52;1776088;79;21634;-91
2022/11/10 13:32:34;;;;;;;37.83;19.25;;;;;;;8.01;100.00;100883.06;1765584;79;21010;-91
2022/11/10 13:35:42;;;;;;;45.10;20.52;;;;;;;7.98;100.00;100889.65;1757491;80;21221;-92
2022/11/10 13:38:36;;;;;;;40.38;19.82;;;;;;;7.96;100.00;100892.77;1762858;80;21044;-90
2022/11/10 13:41:25;;;;;;;31.48;17.27;;;;;;;7.94;100.00;100893.23;1771620;80;21061;-92
2022/11/10 13:44:25;;;;;;;42.48;21.60;;;;;;;7.95;100.00;100902.81;1770179;80;21069;-92
2022/11/10 13:47:18;;;;;;;42.15;21.52;;;;;;;8.01;100.00;100905.36;1787420;78;20970;-89
2022/11/10 13:50:36;;;;;;;40.58;21.17;;;;;;;7.99;100.00;100908.45;1772194;78;21081;-90
2022/11/10 13:53:33;;;;;;;45.45;23.50;;;;;;;8.01;100.00;100917.62;1775949;78;20953;-88
2022/11/10 13:56:40;;;;;;;45.58;24.00;;;;;;;8.01;100.00;100931.59;1772529;78;20934;-90
2022/11/10 13:59:27;;;;;;;47.15;23.38;;;;;;;7.98;100.00;100923.75;1780764;80;20981;-93
2022/11/10 14:02:52;;;;;;;46.37;23.40;;;;;;;7.92;100.00;100921.23;1771477;78;20958;-91
2022/11/10 14:05:58;;;;;;;44.45;23.20;;;;;;;7.96;100.00;100912.44;1764657;78;21088;-88
2022/11/10 14:08:48;;;;;;;48.25;22.90;;;;;;;7.92;100.00;100908.97;1779190;80;20977;-90
2022/11/10 14:11:46;;;;;;;49.42;24.00;;;;;;;7.85;100.00;100914.33;1784435;80;21016;-91
2022/11/10 17:11:35;;;;;;;126.15;51.37;;;;;;;6.96;100.00;100882.61;1791843;78;27343;-90
2022/11/10 17:14:21;;;;;;;116.73;50.23;;;;;;;7.59;100.00;100881.42;1753213;81;21100;-91
2022/11/10 17:17:13;;;;;;;123.65;50.80;;;;;;;7.82;100.00;100885.51;1735524;81;21549;-92
2022/11/10 17:20:02;;;;;;;118.47;51.35;;;;;;;7.76;100.00;100891.27;1748249;81;21084;-92
2022/11/10 17:22:48;;;;;;;106.03;47.48;;;;;;;7.86;100.00;100887.20;1710175;81;21153;-91
2022/11/10 17:25:35;;;;;;;110.28;49.13;;;;;;;7.84;100.00;100888.98;1750792;81;20978;-91
2022/11/10 17:28:20;;;;;;;106.72;45.80;;;;;;;7.98;100.00;100888.33;1754034;81;21244;-92
2022/11/10 17:31:07;;;;;;;110.22;49.53;;;;;;;7.90;100.00;100892.84;1729912;81;21347;-93
2022/11/10 17:33:53;;;;;;;101.20;45.12;;;;;;;8.02;100.00;100892.66;1747507;81;21030;-91
2022/11/10 17:36:37;;;;;;;99.85;46.33;;;;;;;8.03;100.00;100896.14;1746717;81;21803;-92
2022/11/10 17:39:23;;;;;;;97.20;44.10;;;;;;;8.05;100.00;100896.57;1734318;81;21060;-91
2022/11/10 17:42:12;;;;;;;93.75;42.58;;;;;;;8.01;100.00;100897.49;1742096;79;21036;-91
2022/11/10 17:44:57;;;;;;;85.35;40.00;;;;;;;7.98;100.00;100890.95;1735113;81;21267;-91
2022/11/10 17:47:42;;;;;;;82.75;39.53;;;;;;;8.05;100.00;100896.57;1740228;81;21004;-90
2022/11/10 17:50:27;;;;;;;87.82;39.75;;;;;;;8.05;100.00;100899.19;1730815;81;21120;-90
2022/11/10 17:53:26;;;;;;;92.40;42.00;;;;;;;8.07;100.00;100900.01;1742236;81;21162;-91
2022/11/10 17:56:11;;;;;;;88.25;41.88;;;;;;;7.99;100.00;100899.27;1744795;81;20977;-91
2022/11/10 17:58:59;;;;;;;82.72;40.17;;;;;;;8.02;100.00;100896.59;1734784;81;21139;-91
2022/11/10 18:01:44;;;;;;;78.50;38.45;;;;;;;8.01;100.00;100900.12;1736175;81;21639;-92
2022/11/10 18:04:30;;;;;;;74.95;38.20;;;;;;;7.98;100.00;100897.09;1760306;81;21182;-92
2022/11/10 18:07:15;;;;;;;80.03;39.83;;;;;;;7.98;100.00;100895.78;1755381;81;21036;-91
2022/11/10 18:10:00;;;;;;;88.87;42.10;;;;;;;7.97;100.00;100896.66;1742049;81;21116;-91
2022/11/10 18:12:46;;;;;;;67.97;34.08;;;;;;;8.02;100.00;100899.22;1760183;81;21373;-91
2022/11/10 18:15:53;;;;;;;70.28;36.93;;;;;;;8.01;100.00;100897.49;1748852;81;21667;-91
2022/11/10 18:18:38;;;;;;;82.37;39.38;;;;;;;8.01;100.00;100897.49;1751173;81;21088;-91
2022/11/10 18:21:22;;;;;;;77.08;39.30;;;;;;;7.94;100.00;100893.23;1757735;81;21059;-91
2022/11/10 18:24:07;;;;;;;78.83;40.05;;;;;;;8.01;100.00;100894.87;1728940;81;21126;-90
2022/11/10 18:26:52;;;;;;;74.85;35.98;;;;;;;7.99;100.00;100886.16;1728624;81;21865;-92
2022/11/10 18:29:38;;;;;;;74.77;37.78;;;;;;;8.02;100.00;100895.28;1734365;81;21056;-91
2022/11/10 18:32:23;;;;;;;72.10;35.08;;;;;;;7.95;100.00;100897.57;1758894;81;21045;-91
2022/11/10 18:35:08;;;;;;;73.20;34.92;;;;;;;8.02;100.00;100904.45;1749587;81;21187;-91